createdAt,value
2023-04-25T00:08:10.518Z,99.90
2023-04-25T00:18:15.623Z,99.90
2023-04-25T00:28:19.342Z,99.90
2023-04-25T00:38:24.325Z,99.90
2023-04-25T00:48:28.150Z,99.90
2023-04-25T00:58:33.154Z,99.90
2023-04-25T01:08:37.244Z,99.90
2023-04-25T01:18:43.815Z,99.90
2023-04-25T01:28:49.285Z,99.90
2023-04-25T01:38:53.330Z,99.90
2023-04-25T01:48:58.363Z,99.90
2023-04-25T01:59:05.479Z,99.90
2023-04-25T02:09:10.471Z,99.90
2023-04-25T02:19:14.564Z,99.90
2023-04-25T02:29:19.589Z,99.90
2023-04-25T02:39:26.020Z,99.90
2023-04-25T02:49:30.999Z,99.90
2023-04-25T02:59:34.981Z,99.90
2023-04-25T03:09:40.122Z,99.90
2023-04-25T03:19:43.845Z,99.90
2023-04-25T03:29:48.846Z,99.90
2023-04-25T03:39:52.544Z,99.90
2023-04-25T03:49:57.516Z,99.90
2023-04-25T04:00:01.154Z,99.90
2023-04-25T04:10:07.414Z,99.90
2023-04-25T04:20:12.170Z,99.90
2023-04-25T04:30:17.213Z,99.90
2023-04-25T04:40:21.516Z,99.90
2023-04-25T04:50:27.540Z,99.90
2023-04-25T05:00:33.042Z,99.90
2023-04-25T05:10:38.247Z,99.90
2023-04-25T05:20:42.161Z,99.90
2023-04-25T05:30:47.278Z,99.90
2023-04-25T05:40:51.088Z,99.90
2023-04-25T05:50:57.197Z,99.90
2023-04-25T06:01:00.834Z,99.90
2023-04-25T06:11:06.150Z,99.90
2023-04-25T06:21:09.747Z,99.70
2023-04-25T06:31:14.791Z,99.90
2023-04-25T06:41:18.421Z,97.60
2023-04-25T06:51:25.318Z,99.10
2023-04-25T07:01:29.001Z,97.10
2023-04-25T07:11:34.074Z,96.10
2023-04-25T07:21:38.417Z,95.60
2023-04-25T07:31:46.068Z,94.90
2023-04-25T07:41:53.712Z,95.10
2023-04-25T07:52:00.417Z,96.50
2023-04-25T08:02:04.392Z,95.30
2023-04-25T08:12:09.541Z,92.00
2023-04-25T08:22:13.713Z,93.20
2023-04-25T08:32:18.904Z,93.40
2023-04-25T08:42:24.346Z,93.80
2023-04-25T08:52:34.763Z,92.20
2023-04-25T09:02:38.569Z,89.90
2023-04-25T09:12:43.635Z,87.30
2023-04-25T09:22:48.274Z,84.70
2023-04-25T09:32:53.508Z,85.80
2023-04-25T09:42:57.239Z,86.90
2023-04-25T09:53:09.118Z,90.20
2023-04-25T10:03:14.304Z,88.50
2023-04-25T10:13:19.644Z,87.70
2023-04-25T10:23:23.751Z,82.30
2023-04-25T10:33:39.913Z,83.00
2023-04-25T10:43:45.281Z,86.70
2023-04-25T10:54:00.835Z,92.70
2023-04-25T11:04:04.736Z,92.70
2023-04-25T11:14:09.912Z,92.70
2023-04-25T11:24:14.325Z,90.70
2023-04-25T11:34:21.026Z,85.20
2023-04-25T11:44:25.194Z,83.90
2023-04-25T11:54:30.524Z,77.00
2023-04-25T12:04:34.689Z,73.90
2023-04-25T12:14:39.840Z,74.30
2023-04-25T12:24:47.635Z,75.40
2023-04-25T12:34:52.795Z,72.90
2023-04-25T12:44:56.518Z,76.20
2023-04-25T12:55:01.527Z,78.40
2023-04-25T13:05:06.001Z,76.80
2023-04-25T13:15:13.103Z,74.60
2023-04-25T13:25:17.439Z,69.80
2023-04-25T13:35:22.534Z,70.00
2023-04-25T13:45:26.281Z,70.00
2023-04-25T13:55:31.355Z,72.90
2023-04-25T14:05:38.821Z,67.60
2023-04-25T14:15:43.911Z,65.90
2023-04-25T14:25:48.572Z,65.90
2023-04-25T14:35:53.917Z,62.70
2023-04-25T14:45:58.525Z,58.90
2023-04-25T14:56:03.661Z,56.40
2023-04-25T15:06:08.301Z,57.00
2023-04-25T15:16:13.397Z,59.90
2023-04-25T15:26:17.155Z,63.00
2023-04-25T15:36:22.474Z,64.10
2023-04-25T15:46:26.792Z,59.10
2023-04-25T15:56:31.969Z,60.00
2023-04-25T16:06:35.630Z,57.60
2023-04-25T16:16:40.606Z,58.90
2023-04-25T16:26:45.390Z,57.20
2023-04-25T16:36:50.742Z,54.30
2023-04-25T16:46:54.441Z,51.20
2023-04-25T16:56:59.858Z,56.00
2023-04-25T17:07:03.611Z,63.90
2023-04-25T17:17:08.675Z,61.60
2023-04-25T17:27:12.615Z,59.80
2023-04-25T17:37:18.635Z,59.40
2023-04-25T17:47:22.722Z,52.40
2023-04-25T17:57:27.873Z,49.00
2023-04-25T18:07:31.437Z,48.30
2023-04-25T18:17:40.337Z,57.70
2023-04-25T18:27:45.475Z,63.20
2023-04-25T18:37:50.637Z,70.60
2023-04-25T18:47:54.763Z,71.50
2023-04-25T18:57:59.780Z,71.00
2023-04-25T19:08:03.408Z,73.20
2023-04-25T19:18:09.124Z,74.00
2023-04-25T19:28:13.862Z,74.50
2023-04-25T19:38:18.853Z,74.90
2023-04-25T19:48:22.451Z,82.80
2023-04-25T19:58:28.071Z,80.30
2023-04-25T20:08:31.962Z,80.20
2023-04-25T20:18:36.992Z,78.30
2023-04-25T20:28:41.674Z,76.40
2023-04-25T20:38:46.915Z,81.00
2023-04-25T20:48:52.691Z,82.70
2023-04-25T20:59:00.185Z,85.30
2023-04-25T21:09:04.709Z,86.10
2023-04-25T21:19:09.842Z,89.20
2023-04-25T21:29:13.763Z,88.10
2023-04-25T21:39:19.985Z,90.80
2023-04-25T21:49:29.195Z,90.60
2023-04-25T21:59:35.910Z,90.80
2023-04-25T22:09:51.289Z,90.10
2023-04-25T22:19:59.822Z,92.70
2023-04-25T22:30:04.393Z,95.80
2023-04-25T22:40:13.299Z,96.80
2023-04-25T22:50:17.828Z,98.50
2023-04-25T23:00:26.197Z,99.80
2023-04-25T23:10:29.995Z,99.90
2023-04-25T23:20:35.034Z,99.80
2023-04-25T23:30:38.722Z,99.90
2023-04-25T23:40:43.690Z,99.90
2023-04-25T23:50:47.268Z,99.90
